Time;durP1;ratioP1;P1;durP2;ratioP2;P2;SDS_P1;SDS_P2;PMS_P1;PMS_P2;Temp;Humidity;BMP_temperature;BMP_pressure;BME280_temperature;BME280_humidity;BME280_pressure;Samples;Min_cycle;Max_cycle;Signal;HPM_P1;HPM_P2
2021/09/01 00:01:38;;;;;;;4.40;2.83;;;;;;;;;;5018264;28;20044;-85
2021/09/01 00:04:05;;;;;;;4.53;2.55;;;;;;;;;;5024791;28;20069;-84
2021/09/01 00:06:31;;;;;;;4.80;2.88;;;;;;;;;;5017624;28;20064;-85
2021/09/01 00:08:58;;;;;;;4.88;2.85;;;;;;;;;;4999043;28;20107;-86
2021/09/01 00:11:24;;;;;;;3.80;2.63;;;;;;;;;;5027852;28;20054;-85
2021/09/01 00:13:50;;;;;;;4.40;2.30;;;;;;;;;;5026581;28;20057;-85
2021/09/01 00:16:26;;;;;;;5.05;2.80;;;;;;;;;;5024804;28;20060;-86
2021/09/01 00:18:53;;;;;;;5.13;2.63;;;;;;;;;;5005689;28;20583;-87
2021/09/01 00:21:20;;;;;;;4.15;2.50;;;;;;;;;;5024061;28;20083;-86
2021/09/01 00:23:46;;;;;;;4.35;2.47;;;;;;;;;;5019130;28;20672;-86
2021/09/01 00:26:12;;;;;;;5.10;2.88;;;;;;;;;;4999224;28;20057;-85
2021/09/01 00:28:39;;;;;;;4.47;2.42;;;;;;;;;;5029733;28;20041;-86
2021/09/01 00:31:05;;;;;;;4.18;2.65;;;;;;;;;;5024878;28;20033;-87
2021/09/01 00:33:32;;;;;;;3.63;2.13;;;;;;;;;;5014565;28;20064;-88
2021/09/01 00:35:58;;;;;;;3.42;2.35;;;;;;;;;;5020530;28;20062;-86
2021/09/01 00:38:24;;;;;;;5.13;2.60;;;;;;;;;;5017971;28;20057;-86
2021/09/01 00:40:52;;;;;;;3.90;2.53;;;;;;;;;;5025863;28;20072;-87
2021/09/01 00:43:18;;;;;;;4.55;2.67;;;;;;;;;;5019340;28;20034;-86
2021/09/01 00:45:45;;;;;;;4.68;2.85;;;;;;;;;;5025195;28;20057;-86
2021/09/01 00:48:12;;;;;;;4.57;2.65;;;;;;;;;;5018077;28;20057;-86
2021/09/01 00:50:38;;;;;;;5.43;2.50;;;;;;;;;;5016726;28;20471;-86
2021/09/01 00:53:05;;;;;;;4.00;2.40;;;;;;;;;;5017163;28;20062;-85
2021/09/01 00:55:32;;;;;;;3.88;2.55;;;;;;;;;;5012033;28;20077;-85
2021/09/01 00:57:59;;;;;;;3.72;2.30;;;;;;;;;;5014994;28;20044;-85
2021/09/01 01:00:39;;;;;;;4.35;2.30;;;;;;;;;;5022130;28;20066;-84
2021/09/01 01:03:06;;;;;;;4.28;2.53;;;;;;;;;;5026439;28;20057;-86
2021/09/01 01:05:32;;;;;;;4.72;2.80;;;;;;;;;;5026131;28;20060;-85
2021/09/01 01:07:59;;;;;;;4.15;2.85;;;;;;;;;;5018206;28;20131;-84
2021/09/01 01:10:25;;;;;;;4.80;2.60;;;;;;;;;;5017592;28;20085;-86
2021/09/01 01:12:52;;;;;;;4.90;2.60;;;;;;;;;;5021786;28;20053;-85
2021/09/01 01:15:18;;;;;;;4.38;2.45;;;;;;;;;;5024643;28;20069;-85
2021/09/01 01:17:44;;;;;;;4.10;2.58;;;;;;;;;;5032688;28;20072;-83
2021/09/01 01:20:11;;;;;;;3.92;2.72;;;;;;;;;;5018701;28;20050;-83
2021/09/01 01:22:37;;;;;;;3.78;2.65;;;;;;;;;;5012256;28;20054;-83
2021/09/01 01:25:05;;;;;;;3.70;2.42;;;;;;;;;;5016175;28;20057;-83
2021/09/01 01:27:33;;;;;;;3.47;2.22;;;;;;;;;;5019524;28;20470;-83
2021/09/01 01:30:08;;;;;;;4.45;2.53;;;;;;;;;;5020056;28;20065;-84
2021/09/01 01:32:34;;;;;;;3.95;2.40;;;;;;;;;;5023154;28;20069;-84
2021/09/01 01:35:01;;;;;;;3.85;2.45;;;;;;;;;;5023653;28;20578;-84
2021/09/01 01:37:27;;;;;;;4.45;2.70;;;;;;;;;;5024032;28;20053;-84
2021/09/01 01:39:54;;;;;;;4.70;2.53;;;;;;;;;;5017810;28;20053;-83
2021/09/01 01:42:20;;;;;;;3.30;2.00;;;;;;;;;;5026339;28;20072;-82
2021/09/01 01:44:46;;;;;;;3.70;2.33;;;;;;;;;;5023077;28;20065;-82
2021/09/01 01:47:13;;;;;;;4.00;2.53;;;;;;;;;;5021538;28;20048;-84
2021/09/01 01:49:39;;;;;;;4.55;2.38;;;;;;;;;;5005403;28;20160;-84
2021/09/01 01:52:06;;;;;;;5.38;2.85;;;;;;;;;;5028445;28;20073;-85
2021/09/01 01:54:32;;;;;;;3.40;2.42;;;;;;;;;;5020706;28;20060;-86
2021/09/01 01:57:00;;;;;;;4.07;2.70;;;;;;;;;;5026268;28;20073;-84
2021/09/01 01:59:26;;;;;;;3.85;2.58;;;;;;;;;;5016437;28;20682;-84
2021/09/01 02:01:53;;;;;;;4.05;2.42;;;;;;;;;;5027652;28;20107;-84
2021/09/01 02:04:19;;;;;;;3.30;2.28;;;;;;;;;;5027585;28;20068;-84
2021/09/01 02:06:45;;;;;;;3.47;2.40;;;;;;;;;;5019540;28;20437;-87
2021/09/01 02:09:12;;;;;;;4.00;2.25;;;;;;;;;;5016505;28;20173;-84
2021/09/01 02:11:38;;;;;;;3.95;2.38;;;;;;;;;;5022063;28;20049;-85
2021/09/01 02:14:05;;;;;;;4.03;2.38;;;;;;;;;;5013964;28;20102;-84
2021/09/01 02:16:31;;;;;;;3.40;2.40;;;;;;;;;;5017782;28;20087;-86
2021/09/01 02:18:57;;;;;;;3.40;2.22;;;;;;;;;;5026906;28;20069;-86
2021/09/01 02:21:24;;;;;;;3.38;2.22;;;;;;;;;;5027080;28;20101;-87
2021/09/01 02:23:50;;;;;;;4.00;2.40;;;;;;;;;;5029062;28;20064;-88
2021/09/01 02:26:17;;;;;;;4.70;2.40;;;;;;;;;;5028252;28;20065;-87
2021/09/01 02:28:43;;;;;;;3.55;2.65;;;;;;;;;;5024239;28;20053;-87
2021/09/01 02:31:09;;;;;;;3.33;2.10;;;;;;;;;;5026487;28;20391;-87
2021/09/01 02:33:36;;;;;;;3.58;2.20;;;;;;;;;;5032007;28;21714;-88
2021/09/01 02:36:03;;;;;;;4.32;2.50;;;;;;;;;;5018886;28;20147;-89
2021/09/01 02:38:29;;;;;;;3.25;2.25;;;;;;;;;;5021732;28;20078;-88
2021/09/01 02:40:56;;;;;;;3.90;2.30;;;;;;;;;;5022750;28;20123;-87
2021/09/01 02:43:23;;;;;;;4.05;2.58;;;;;;;;;;5024531;28;20064;-88
2021/09/01 02:45:49;;;;;;;3.08;2.20;;;;;;;;;;5027631;28;20064;-88
2021/09/01 02:48:16;;;;;;;3.85;2.25;;;;;;;;;;5017709;28;20080;-87
2021/09/01 02:50:42;;;;;;;5.88;2.47;;;;;;;;;;5005354;28;21048;-88
2021/09/01 02:53:09;;;;;;;4.85;2.35;;;;;;;;;;5011014;28;20573;-87
2021/09/01 02:55:35;;;;;;;3.25;2.13;;;;;;;;;;5027844;28;20076;-88
2021/09/01 02:58:02;;;;;;;3.97;2.35;;;;;;;;;;5030224;28;20057;-87
2021/09/01 03:00:29;;;;;;;3.75;2.33;;;;;;;;;;5023804;28;20083;-86
2021/09/01 03:02:56;;;;;;;4.47;2.50;;;;;;;;;;5028352;28;20072;-85
2021/09/01 03:05:22;;;;;;;3.42;2.30;;;;;;;;;;5026533;28;20057;-84
2021/09/01 03:07:49;;;;;;;3.53;2.30;;;;;;;;;;5024317;28;20076;-86
2021/09/01 03:10:15;;;;;;;3.28;2.20;;;;;;;;;;5017881;28;20099;-85
2021/09/01 03:12:41;;;;;;;3.55;2.22;;;;;;;;;;5026480;28;20045;-86
2021/09/01 03:15:28;;;;;;;3.47;2.10;;;;;;;;;;5027052;28;20503;-91
2021/09/01 03:17:55;;;;;;;4.18;2.53;;;;;;;;;;5018748;28;21196;-85
2021/09/01 03:20:21;;;;;;;2.95;1.98;;;;;;;;;;5021402;28;20715;-85
2021/09/01 03:22:47;;;;;;;3.72;2.30;;;;;;;;;;5029626;28;20120;-85
2021/09/01 03:25:14;;;;;;;3.60;2.10;;;;;;;;;;5023015;28;20712;-85
2021/09/01 03:27:40;;;;;;;4.45;2.25;;;;;;;;;;5021423;28;20071;-89
2021/09/01 03:30:07;;;;;;;3.78;2.40;;;;;;;;;;5010197;28;20053;-90
2021/09/01 03:32:34;;;;;;;3.33;2.03;;;;;;;;;;5019434;28;20213;-90
2021/09/01 03:35:00;;;;;;;3.75;2.17;;;;;;;;;;5021636;28;20132;-91
2021/09/01 03:37:26;;;;;;;3.47;2.30;;;;;;;;;;5023407;28;20069;-90
2021/09/01 03:39:53;;;;;;;4.25;2.63;;;;;;;;;;5019219;28;20062;-92
2021/09/01 03:42:20;;;;;;;4.13;2.22;;;;;;;;;;5017150;28;20453;-92
2021/09/01 03:44:46;;;;;;;4.47;2.28;;;;;;;;;;5020016;28;20062;-92
2021/09/01 03:47:12;;;;;;;4.32;2.17;;;;;;;;;;5022622;28;20057;-90
2021/09/01 03:49:39;;;;;;;3.13;2.20;;;;;;;;;;5019316;28;20065;-90
2021/09/01 03:52:05;;;;;;;3.63;2.40;;;;;;;;;;5014750;28;20509;-90
2021/09/01 03:54:32;;;;;;;4.53;2.28;;;;;;;;;;5020059;28;20069;-90
2021/09/01 03:56:58;;;;;;;3.60;2.10;;;;;;;;;;5026873;28;20075;-91
2021/09/01 03:59:24;;;;;;;3.92;2.10;;;;;;;;;;5022549;28;20064;-91
2021/09/01 04:01:51;;;;;;;3.55;2.20;;;;;;;;;;5018912;28;20041;-91
2021/09/01 04:04:17;;;;;;;3.97;1.77;;;;;;;;;;5019357;28;20070;-86
2021/09/01 04:06:44;;;;;;;2.88;1.77;;;;;;;;;;5022053;28;20069;-91
2021/09/01 04:09:10;;;;;;;4.07;2.58;;;;;;;;;;5019710;28;20057;-92
2021/09/01 04:11:36;;;;;;;3.65;1.90;;;;;;;;;;5023835;28;21900;-92
2021/09/01 04:14:15;;;;;;;4.07;2.38;;;;;;;;;;5024622;28;20037;-91
2021/09/01 04:16:41;;;;;;;3.47;2.20;;;;;;;;;;5016741;28;20045;-89
2021/09/01 04:19:08;;;;;;;3.45;2.30;;;;;;;;;;5013973;28;20111;-88
2021/09/01 04:21:34;;;;;;;3.55;2.13;;;;;;;;;;5013746;28;20061;-87
2021/09/01 04:24:01;;;;;;;3.38;2.00;;;;;;;;;;5014259;28;20434;-91
2021/09/01 04:26:27;;;;;;;3.70;2.40;;;;;;;;;;5012342;28;20057;-85
2021/09/01 04:28:53;;;;;;;3.75;2.22;;;;;;;;;;5015707;28;20057;-88
2021/09/01 04:31:20;;;;;;;4.00;2.42;;;;;;;;;;5012076;28;20111;-84
2021/09/01 04:33:46;;;;;;;4.40;2.55;;;;;;;;;;5017280;28;20061;-82
2021/09/01 04:36:13;;;;;;;5.40;2.80;;;;;;;;;;5016463;28;20065;-84
2021/09/01 04:38:39;;;;;;;3.95;2.50;;;;;;;;;;5018038;28;20061;-86
2021/09/01 04:41:06;;;;;;;6.45;2.80;;;;;;;;;;5013970;28;20057;-82
2021/09/01 04:43:32;;;;;;;3.97;2.13;;;;;;;;;;5013633;28;20061;-84
2021/09/01 04:45:58;;;;;;;4.32;2.40;;;;;;;;;;5009813;28;20045;-79
2021/09/01 04:48:26;;;;;;;4.65;2.15;;;;;;;;;;5014103;28;20065;-84
2021/09/01 04:50:53;;;;;;;4.93;2.50;;;;;;;;;;5014297;28;20220;-84
2021/09/01 04:53:20;;;;;;;3.97;2.42;;;;;;;;;;5018204;28;20060;-84
2021/09/01 04:55:47;;;;;;;4.53;2.40;;;;;;;;;;5011027;28;20070;-84
2021/09/01 04:58:14;;;;;;;4.47;2.53;;;;;;;;;;5015211;28;20570;-84
2021/09/01 05:00:40;;;;;;;6.07;2.45;;;;;;;;;;5019540;28;20061;-84
2021/09/01 05:03:07;;;;;;;7.20;2.42;;;;;;;;;;5022062;28;20061;-83
2021/09/01 05:05:33;;;;;;;4.50;2.30;;;;;;;;;;5023311;28;20065;-82
2021/09/01 05:08:00;;;;;;;2.95;1.88;;;;;;;;;;5017606;28;20049;-83
2021/09/01 05:10:26;;;;;;;9.13;2.67;;;;;;;;;;5019689;28;20050;-84
2021/09/01 05:12:53;;;;;;;4.35;2.25;;;;;;;;;;5021008;28;20069;-83
2021/09/01 05:15:20;;;;;;;4.80;2.22;;;;;;;;;;5029502;28;20111;-84
2021/09/01 05:17:46;;;;;;;5.03;2.22;;;;;;;;;;5020507;28;20058;-84
2021/09/01 05:20:14;;;;;;;3.72;2.42;;;;;;;;;;5035413;28;20712;-82
2021/09/01 05:22:44;;;;;;;4.55;1.95;;;;;;;;;;5025340;28;20045;-82
2021/09/01 05:25:11;;;;;;;4.25;2.30;;;;;;;;;;5020992;28;20029;-84
2021/09/01 05:27:39;;;;;;;4.00;2.25;;;;;;;;;;5023828;28;20057;-85
2021/09/01 05:30:07;;;;;;;4.95;2.08;;;;;;;;;;5027760;28;20115;-85
2021/09/01 05:32:35;;;;;;;3.92;2.10;;;;;;;;;;5013366;28;20100;-84
2021/09/01 05:35:02;;;;;;;3.50;2.13;;;;;;;;;;5029547;28;20049;-84
2021/09/01 05:37:28;;;;;;;4.90;2.13;;;;;;;;;;5017866;28;20127;-84
2021/09/01 05:39:56;;;;;;;4.55;2.10;;;;;;;;;;5026118;28;20061;-83
2021/09/01 05:42:24;;;;;;;3.75;2.20;;;;;;;;;;5023202;28;20097;-84
2021/09/01 05:44:51;;;;;;;4.63;2.58;;;;;;;;;;5025419;28;20452;-83
2021/09/01 05:47:18;;;;;;;5.40;2.28;;;;;;;;;;5021793;28;20061;-86
2021/09/01 05:49:47;;;;;;;3.25;1.90;;;;;;;;;;5035626;28;20038;-84
2021/09/01 05:52:14;;;;;;;4.28;2.20;;;;;;;;;;5028496;28;20122;-84
2021/09/01 05:54:41;;;;;;;2.97;1.80;;;;;;;;;;5020761;28;20058;-84
2021/09/01 05:57:12;;;;;;;3.53;1.80;;;;;;;;;;5023491;28;20068;-84
2021/09/01 05:59:49;;;;;;;3.42;1.80;;;;;;;;;;5012990;28;20069;-81
2021/09/01 06:02:20;;;;;;;3.95;1.90;;;;;;;;;;5025491;28;20077;-81
2021/09/01 06:04:47;;;;;;;4.93;2.10;;;;;;;;;;5020855;28;21385;-79
2021/09/01 06:07:15;;;;;;;3.55;1.88;;;;;;;;;;5023742;28;20057;-79
2021/09/01 06:09:42;;;;;;;3.47;2.00;;;;;;;;;;5033067;28;20052;-79
2021/09/01 06:12:09;;;;;;;3.38;1.70;;;;;;;;;;5024939;28;20118;-79
2021/09/01 06:14:36;;;;;;;3.53;2.20;;;;;;;;;;5025375;28;20056;-80
2021/09/01 06:17:02;;;;;;;3.42;2.20;;;;;;;;;;5025152;28;20066;-79
2021/09/01 06:19:29;;;;;;;3.72;2.08;;;;;;;;;;5025807;28;20064;-78
2021/09/01 06:21:55;;;;;;;3.80;2.22;;;;;;;;;;5024816;28;20111;-79
2021/09/01 06:24:21;;;;;;;5.32;2.55;;;;;;;;;;5017492;28;20065;-78
2021/09/01 06:26:48;;;;;;;4.72;2.00;;;;;;;;;;5017150;28;20034;-78
2021/09/01 06:29:14;;;;;;;3.95;1.85;;;;;;;;;;5023541;28;20510;-79
2021/09/01 06:31:41;;;;;;;3.25;1.92;;;;;;;;;;5024067;28;20060;-79
2021/09/01 06:34:07;;;;;;;3.28;1.80;;;;;;;;;;5022741;28;20086;-79
2021/09/01 06:36:33;;;;;;;3.28;1.90;;;;;;;;;;5036381;28;20037;-78
2021/09/01 06:39:00;;;;;;;4.95;2.30;;;;;;;;;;5027345;28;20081;-79
2021/09/01 06:41:27;;;;;;;3.95;2.00;;;;;;;;;;5020262;28;20053;-78
2021/09/01 06:43:53;;;;;;;3.63;1.73;;;;;;;;;;5026026;28;20080;-78
2021/09/01 06:46:19;;;;;;;3.92;1.92;;;;;;;;;;5025497;28;20054;-79
2021/09/01 06:48:46;;;;;;;4.88;2.10;;;;;;;;;;5019519;28;20505;-80
2021/09/01 06:51:12;;;;;;;3.72;2.00;;;;;;;;;;5019742;28;20119;-80
2021/09/01 06:53:38;;;;;;;3.63;1.98;;;;;;;;;;5019132;28;20066;-79
2021/09/01 06:56:05;;;;;;;4.55;2.10;;;;;;;;;;5016185;28;20061;-79
2021/09/01 06:58:32;;;;;;;3.88;2.00;;;;;;;;;;5020830;28;20511;-78
2021/09/01 07:00:58;;;;;;;3.85;2.00;;;;;;;;;;5021585;28;20443;-77
2021/09/01 07:03:24;;;;;;;3.05;1.90;;;;;;;;;;5030976;28;20053;-77
2021/09/01 07:05:51;;;;;;;3.35;1.80;;;;;;;;;;5033573;28;20065;-77
2021/09/01 07:08:20;;;;;;;4.47;2.10;;;;;;;;;;5029740;28;20060;-77
2021/09/01 07:10:47;;;;;;;2.83;1.90;;;;;;;;;;5025513;28;21423;-78
2021/09/01 07:13:13;;;;;;;3.45;1.95;;;;;;;;;;5016164;28;20049;-77
2021/09/01 07:15:40;;;;;;;3.33;2.03;;;;;;;;;;5032592;28;20521;-78
2021/09/01 07:18:06;;;;;;;2.78;1.75;;;;;;;;;;5032404;28;20088;-77
2021/09/01 07:20:33;;;;;;;4.30;1.73;;;;;;;;;;5023508;28;20053;-77
2021/09/01 07:22:59;;;;;;;2.90;1.83;;;;;;;;;;5014788;28;20104;-78
2021/09/01 07:25:27;;;;;;;2.58;1.80;;;;;;;;;;5017399;28;20497;-77
2021/09/01 07:27:54;;;;;;;2.67;2.00;;;;;;;;;;5021555;28;20068;-79
2021/09/01 07:30:20;;;;;;;4.50;2.08;;;;;;;;;;5015948;28;20061;-77
2021/09/01 07:32:46;;;;;;;4.13;1.98;;;;;;;;;;5027403;28;20058;-78
2021/09/01 07:35:13;;;;;;;3.42;1.95;;;;;;;;;;5016075;28;20065;-78
2021/09/01 07:37:46;;;;;;;2.97;1.65;;;;;;;;;;5022982;28;20072;-78
2021/09/01 07:40:14;;;;;;;3.67;2.00;;;;;;;;;;5019543;28;20474;-78
2021/09/01 07:42:40;;;;;;;3.45;1.73;;;;;;;;;;5021344;28;20057;-77
2021/09/01 07:45:07;;;;;;;3.00;1.77;;;;;;;;;;5023196;28;20064;-77
2021/09/01 07:47:34;;;;;;;2.58;1.65;;;;;;;;;;5024227;28;20062;-77
2021/09/01 07:50:00;;;;;;;3.60;2.10;;;;;;;;;;5019418;28;20062;-78
2021/09/01 07:52:27;;;;;;;4.10;2.40;;;;;;;;;;5015571;28;20080;-77
2021/09/01 07:54:53;;;;;;;3.92;1.63;;;;;;;;;;5013369;28;20096;-77
2021/09/01 07:57:19;;;;;;;3.67;2.10;;;;;;;;;;5013023;28;20065;-78
2021/09/01 07:59:46;;;;;;;3.25;1.80;;;;;;;;;;5017518;28;20060;-77
2021/09/01 08:02:12;;;;;;;3.30;1.88;;;;;;;;;;5011622;28;21120;-77
2021/09/01 08:04:39;;;;;;;3.00;1.63;;;;;;;;;;5014743;28;20471;-76
2021/09/01 08:07:05;;;;;;;2.85;1.70;;;;;;;;;;5010394;28;20065;-78
2021/09/01 08:09:31;;;;;;;3.83;2.00;;;;;;;;;;5019769;28;20068;-77
2021/09/01 08:11:58;;;;;;;4.18;1.90;;;;;;;;;;5021616;28;20088;-78
2021/09/01 08:14:24;;;;;;;2.70;1.63;;;;;;;;;;5011391;28;20064;-79
2021/09/01 08:16:50;;;;;;;2.97;1.58;;;;;;;;;;5024612;28;20065;-78
2021/09/01 08:19:17;;;;;;;3.15;1.90;;;;;;;;;;5031886;28;20065;-78
2021/09/01 08:21:43;;;;;;;3.55;1.90;;;;;;;;;;5010905;28;21481;-78
2021/09/01 08:24:09;;;;;;;2.67;1.60;;;;;;;;;;5012001;28;20049;-78
2021/09/01 08:26:36;;;;;;;3.38;1.77;;;;;;;;;;5014771;28;20485;-79
2021/09/01 08:29:02;;;;;;;3.13;1.70;;;;;;;;;;5030070;28;20060;-78
2021/09/01 08:31:29;;;;;;;3.08;1.50;;;;;;;;;;5010799;28;20069;-78
2021/09/01 08:33:55;;;;;;;3.42;1.60;;;;;;;;;;5019718;28;20061;-78
2021/09/01 08:36:21;;;;;;;3.25;1.83;;;;;;;;;;5025337;28;20504;-78
2021/09/01 08:38:48;;;;;;;3.45;1.75;;;;;;;;;;5013445;28;20073;-76
2021/09/01 08:41:16;;;;;;;2.50;1.60;;;;;;;;;;5018768;28;20482;-79
2021/09/01 08:43:42;;;;;;;3.45;1.98;;;;;;;;;;5014444;28;20065;-78
2021/09/01 08:46:09;;;;;;;3.40;2.05;;;;;;;;;;5015180;28;20536;-77
2021/09/01 08:48:39;;;;;;;4.40;1.90;;;;;;;;;;5019784;28;20073;-78
2021/09/01 08:51:05;;;;;;;4.05;2.20;;;;;;;;;;5012994;28;20062;-78
2021/09/01 08:53:31;;;;;;;2.72;1.80;;;;;;;;;;5013736;28;20115;-78
2021/09/01 08:55:58;;;;;;;3.53;2.10;;;;;;;;;;5020269;28;20041;-77
2021/09/01 08:58:24;;;;;;;2.97;1.80;;;;;;;;;;5016666;28;20060;-77
2021/09/01 09:00:51;;;;;;;5.28;2.10;;;;;;;;;;5020631;28;20057;-77
2021/09/01 09:03:17;;;;;;;5.13;2.20;;;;;;;;;;5022931;28;20068;-78
2021/09/01 09:05:46;;;;;;;4.07;1.83;;;;;;;;;;5012289;28;20515;-77
2021/09/01 09:08:16;;;;;;;5.38;2.00;;;;;;;;;;5018408;28;20494;-77
2021/09/01 09:10:44;;;;;;;3.75;2.10;;;;;;;;;;5018711;28;20053;-77
2021/09/01 09:13:12;;;;;;;5.28;2.10;;;;;;;;;;5021562;28;20054;-79
2021/09/01 09:15:39;;;;;;;4.32;2.28;;;;;;;;;;5012109;28;20065;-78
2021/09/01 09:18:24;;;;;;;3.60;1.92;;;;;;;;;;5011403;28;20140;-77
2021/09/01 09:20:50;;;;;;;3.85;1.95;;;;;;;;;;5013105;28;20057;-79
2021/09/01 09:23:29;;;;;;;3.35;2.22;;;;;;;;;;5012560;28;20108;-76
2021/09/01 09:25:55;;;;;;;6.85;1.98;;;;;;;;;;5015629;28;20490;-78
2021/09/01 09:28:21;;;;;;;3.35;1.98;;;;;;;;;;5014155;28;20057;-76
2021/09/01 09:30:48;;;;;;;3.70;2.05;;;;;;;;;;5010705;28;20057;-77
2021/09/01 09:33:17;;;;;;;3.83;2.10;;;;;;;;;;5014344;28;20068;-79
2021/09/01 09:35:47;;;;;;;4.05;1.98;;;;;;;;;;5012252;28;20065;-78
2021/09/01 09:38:15;;;;;;;4.00;2.30;;;;;;;;;;5013149;28;20581;-77
2021/09/01 09:40:41;;;;;;;4.22;2.25;;;;;;;;;;5014410;28;20500;-76
2021/09/01 09:43:17;;;;;;;3.30;2.30;;;;;;;;;;5009298;28;20106;-78
2021/09/01 09:45:44;;;;;;;4.55;2.05;;;;;;;;;;5014237;28;21531;-80
2021/09/01 09:48:11;;;;;;;3.33;2.08;;;;;;;;;;5011750;28;20092;-77
2021/09/01 09:50:37;;;;;;;3.10;1.90;;;;;;;;;;5015259;28;20132;-77
2021/09/01 09:53:04;;;;;;;3.10;2.08;;;;;;;;;;5021150;28;20485;-78
2021/09/01 09:55:32;;;;;;;3.55;2.03;;;;;;;;;;5021828;28;20618;-78
2021/09/01 09:58:02;;;;;;;4.63;2.38;;;;;;;;;;5015485;28;20177;-78
2021/09/01 10:00:29;;;;;;;3.47;2.03;;;;;;;;;;5014992;28;20066;-77
2021/09/01 10:02:56;;;;;;;3.47;2.33;;;;;;;;;;5017955;28;20049;-80
2021/09/01 10:05:24;;;;;;;3.38;2.10;;;;;;;;;;5016413;28;20111;-79
2021/09/01 10:07:51;;;;;;;3.58;2.00;;;;;;;;;;5025009;28;20065;-78
2021/09/01 10:10:18;;;;;;;4.38;2.38;;;;;;;;;;5015036;28;20049;-83
2021/09/01 10:12:45;;;;;;;3.83;2.20;;;;;;;;;;5016297;28;20030;-82
2021/09/01 10:15:18;;;;;;;3.97;2.30;;;;;;;;;;5019118;28;20438;-83
2021/09/01 10:17:52;;;;;;;4.68;2.80;;;;;;;;;;5017460;28;20100;-83
2021/09/01 10:20:21;;;;;;;3.63;2.35;;;;;;;;;;5007806;28;20057;-84
2021/09/01 10:23:07;;;;;;;3.75;2.40;;;;;;;;;;5033256;28;20535;-83
2021/09/01 10:25:37;;;;;;;4.82;2.38;;;;;;;;;;5018177;28;20427;-83
2021/09/01 10:28:22;;;;;;;6.65;2.58;;;;;;;;;;5021903;28;20057;-82
2021/09/01 10:31:08;;;;;;;4.70;2.78;;;;;;;;;;5024027;28;20072;-83
2021/09/01 10:33:35;;;;;;;4.38;2.60;;;;;;;;;;5019932;28;20100;-83
2021/09/01 10:36:21;;;;;;;5.22;2.88;;;;;;;;;;5019698;28;20045;-83
2021/09/01 10:38:48;;;;;;;3.80;2.40;;;;;;;;;;5016610;28;21245;-84
2021/09/01 10:41:27;;;;;;;4.20;2.80;;;;;;;;;;5020422;28;20112;-82
2021/09/01 10:43:56;;;;;;;3.85;2.38;;;;;;;;;;5012644;28;20124;-83
2021/09/01 10:46:23;;;;;;;4.68;2.95;;;;;;;;;;5032903;28;20050;-82
2021/09/01 10:48:57;;;;;;;4.60;2.85;;;;;;;;;;5029203;28;20425;-82
2021/09/01 10:51:27;;;;;;;4.10;2.60;;;;;;;;;;5004785;28;20061;-83
2021/09/01 10:53:53;;;;;;;3.90;2.40;;;;;;;;;;5014946;28;20118;-82
2021/09/01 10:56:20;;;;;;;5.05;2.50;;;;;;;;;;5013192;28;20057;-84
2021/09/01 10:58:48;;;;;;;4.25;2.90;;;;;;;;;;5020041;28;20073;-82
2021/09/01 11:01:16;;;;;;;4.97;2.90;;;;;;;;;;5018480;28;20520;-81
2021/09/01 11:04:02;;;;;;;4.38;2.60;;;;;;;;;;5014488;28;20103;-80
2021/09/01 11:06:35;;;;;;;5.60;2.78;;;;;;;;;;5020457;28;20501;-82
2021/09/01 11:09:12;;;;;;;5.57;2.88;;;;;;;;;;5020506;28;20060;-82
2021/09/01 11:11:38;;;;;;;5.88;2.80;;;;;;;;;;5017176;28;20569;-82
2021/09/01 11:14:04;;;;;;;5.82;2.85;;;;;;;;;;5015019;28;20103;-82
2021/09/01 11:16:31;;;;;;;5.15;3.38;;;;;;;;;;5012032;28;20065;-82
2021/09/01 11:19:00;;;;;;;5.10;2.88;;;;;;;;;;5019501;28;20065;-81
2021/09/01 11:21:27;;;;;;;5.65;2.78;;;;;;;;;;5017777;28;20058;-82
2021/09/01 11:23:55;;;;;;;6.05;2.95;;;;;;;;;;5016966;28;20065;-82
2021/09/01 11:26:27;;;;;;;5.15;3.22;;;;;;;;;;5023922;28;20083;-83
2021/09/01 11:28:53;;;;;;;4.60;3.08;;;;;;;;;;5021357;28;20557;-82
2021/09/01 11:31:20;;;;;;;5.10;2.90;;;;;;;;;;5020844;28;20071;-82
2021/09/01 11:33:47;;;;;;;5.32;3.08;;;;;;;;;;5021534;28;20147;-82
2021/09/01 11:36:13;;;;;;;4.70;2.97;;;;;;;;;;5020616;28;20033;-83
2021/09/01 11:38:46;;;;;;;4.50;2.80;;;;;;;;;;5022030;28;20077;-82
2021/09/01 11:41:13;;;;;;;4.68;2.55;;;;;;;;;;5028046;28;20057;-83
2021/09/01 11:43:39;;;;;;;3.90;2.72;;;;;;;;;;5018961;28;20108;-82
2021/09/01 11:46:06;;;;;;;4.70;2.63;;;;;;;;;;5027433;28;21317;-81
2021/09/01 11:48:39;;;;;;;5.60;3.10;;;;;;;;;;5018982;28;20061;-83
2021/09/01 11:51:06;;;;;;;7.00;3.30;;;;;;;;;;5020866;28;20064;-83
2021/09/01 11:53:40;;;;;;;4.07;2.47;;;;;;;;;;5019127;28;20068;-83
2021/09/01 11:56:10;;;;;;;5.13;3.30;;;;;;;;;;5016381;28;20057;-83
2021/09/01 11:58:37;;;;;;;3.90;2.70;;;;;;;;;;5017851;28;20113;-83
2021/09/01 12:01:04;;;;;;;4.70;2.85;;;;;;;;;;5026450;28;20465;-84
2021/09/01 12:03:31;;;;;;;3.75;2.72;;;;;;;;;;5017543;28;20599;-82
2021/09/01 12:06:05;;;;;;;4.72;3.15;;;;;;;;;;5031763;28;20068;-83
2021/09/01 12:08:40;;;;;;;5.43;3.30;;;;;;;;;;5024802;28;20057;-83
2021/09/01 12:11:06;;;;;;;5.97;2.90;;;;;;;;;;5017361;28;20057;-83
2021/09/01 12:13:40;;;;;;;5.57;2.97;;;;;;;;;;5017547;28;20509;-84
2021/09/01 12:16:07;;;;;;;5.88;3.55;;;;;;;;;;5021534;28;20563;-83
2021/09/01 12:18:53;;;;;;;6.50;3.00;;;;;;;;;;5015814;28;20507;-83
2021/09/01 12:21:20;;;;;;;5.80;3.28;;;;;;;;;;5021556;28;20034;-84
2021/09/01 12:24:09;;;;;;;5.35;2.95;;;;;;;;;;5020323;28;20127;-83
2021/09/01 12:27:06;;;;;;;4.93;3.40;;;;;;;;;;5003537;28;20037;-84
2021/09/01 12:29:40;;;;;;;5.35;2.90;;;;;;;;;;5026651;28;20119;-83
2021/09/01 12:32:17;;;;;;;4.63;2.88;;;;;;;;;;5017085;28;20046;-83
2021/09/01 12:34:45;;;;;;;5.00;3.25;;;;;;;;;;5012732;28;20100;-83
2021/09/01 12:37:11;;;;;;;6.22;3.30;;;;;;;;;;5011641;28;20057;-82
2021/09/01 12:39:46;;;;;;;5.30;3.53;;;;;;;;;;5018273;28;20658;-82
2021/09/01 12:42:24;;;;;;;6.10;3.55;;;;;;;;;;5013660;28;20068;-82
2021/09/01 12:44:58;;;;;;;8.77;3.97;;;;;;;;;;5012820;28;20617;-83
2021/09/01 12:47:25;;;;;;;6.20;4.18;;;;;;;;;;5012403;28;20076;-83
2021/09/01 12:49:52;;;;;;;5.22;3.92;;;;;;;;;;5013279;28;20654;-83
2021/09/01 12:52:19;;;;;;;8.25;3.70;;;;;;;;;;5015053;28;20108;-83
2021/09/01 12:54:45;;;;;;;7.72;3.45;;;;;;;;;;5022576;28;20276;-82
2021/09/01 12:57:12;;;;;;;5.38;3.10;;;;;;;;;;5017125;28;20110;-83
2021/09/01 12:59:38;;;;;;;6.03;3.80;;;;;;;;;;5023356;28;20061;-82
2021/09/01 13:02:05;;;;;;;5.80;3.45;;;;;;;;;;5025351;28;20099;-82
2021/09/01 13:04:32;;;;;;;6.07;3.67;;;;;;;;;;5028621;28;20049;-81
2021/09/01 13:06:59;;;;;;;5.90;3.63;;;;;;;;;;5016341;28;20057;-83
2021/09/01 13:09:26;;;;;;;4.90;3.40;;;;;;;;;;5011994;28;20157;-82
2021/09/01 13:11:54;;;;;;;4.70;3.20;;;;;;;;;;5016690;28;20434;-83
2021/09/01 13:14:20;;;;;;;7.03;3.85;;;;;;;;;;5017090;28;20045;-83
2021/09/01 13:16:47;;;;;;;5.93;3.40;;;;;;;;;;5006572;28;20119;-83
2021/09/01 13:19:13;;;;;;;5.40;3.60;;;;;;;;;;5023340;28;20042;-84
2021/09/01 13:21:40;;;;;;;5.50;3.58;;;;;;;;;;5024200;28;20839;-82
2021/09/01 13:24:07;;;;;;;6.65;3.55;;;;;;;;;;5026205;28;20041;-82
2021/09/01 13:26:34;;;;;;;7.20;3.90;;;;;;;;;;5028520;28;20049;-83
2021/09/01 13:29:00;;;;;;;5.65;3.63;;;;;;;;;;5026276;28;20115;-83
2021/09/01 13:31:27;;;;;;;6.15;3.58;;;;;;;;;;5012420;28;20029;-83
2021/09/01 13:33:56;;;;;;;6.60;3.42;;;;;;;;;;5024354;28;20704;-83
2021/09/01 13:36:22;;;;;;;6.07;3.88;;;;;;;;;;5035785;28;20059;-83
2021/09/01 13:38:49;;;;;;;6.15;4.10;;;;;;;;;;5019088;28;20076;-84
2021/09/01 13:41:15;;;;;;;5.88;3.92;;;;;;;;;;5021237;28;20033;-83
2021/09/01 13:43:42;;;;;;;5.55;3.38;;;;;;;;;;5014473;28;20508;-83
2021/09/01 13:46:08;;;;;;;6.60;3.38;;;;;;;;;;5023618;28;20059;-83
2021/09/01 13:48:34;;;;;;;5.57;3.47;;;;;;;;;;5019785;28;20080;-84
2021/09/01 13:51:01;;;;;;;6.95;4.20;;;;;;;;;;5019723;28;20065;-82
2021/09/01 13:53:28;;;;;;;5.45;3.40;;;;;;;;;;5024042;28;20065;-83
2021/09/01 13:55:59;;;;;;;5.65;3.42;;;;;;;;;;5023185;28;20061;-84
2021/09/01 13:58:26;;;;;;;7.10;3.75;;;;;;;;;;5011266;28;20066;-83
2021/09/01 14:00:55;;;;;;;8.25;4.13;;;;;;;;;;5019348;28;20168;-83
2021/09/01 14:03:23;;;;;;;6.82;3.67;;;;;;;;;;4986957;28;20125;-84
2021/09/01 14:05:49;;;;;;;9.75;3.85;;;;;;;;;;5021668;28;20074;-82
2021/09/01 14:08:16;;;;;;;8.55;4.07;;;;;;;;;;5003914;28;20530;-84
2021/09/01 14:10:42;;;;;;;5.97;3.55;;;;;;;;;;4999314;28;20076;-83
2021/09/01 14:13:09;;;;;;;5.82;3.20;;;;;;;;;;4999359;28;20068;-82
2021/09/01 14:15:36;;;;;;;7.03;3.33;;;;;;;;;;5006871;28;20061;-83
2021/09/01 14:18:03;;;;;;;6.40;3.60;;;;;;;;;;5006138;28;20080;-82
2021/09/01 14:20:32;;;;;;;7.38;3.65;;;;;;;;;;5016131;28;20065;-83
2021/09/01 14:22:58;;;;;;;12.30;3.83;;;;;;;;;;5031763;28;20707;-83
2021/09/01 14:25:25;;;;;;;8.43;3.95;;;;;;;;;;5021660;28;20068;-82
2021/09/01 14:27:52;;;;;;;6.55;3.47;;;;;;;;;;5021257;28;20085;-83
2021/09/01 14:30:18;;;;;;;6.43;3.80;;;;;;;;;;5015057;28;20494;-84
2021/09/01 14:32:45;;;;;;;6.03;3.75;;;;;;;;;;5017031;28;20132;-84
2021/09/01 14:35:11;;;;;;;5.97;3.75;;;;;;;;;;5019575;28;20069;-84
2021/09/01 14:37:38;;;;;;;7.15;3.70;;;;;;;;;;5023949;28;20077;-83
2021/09/01 14:40:07;;;;;;;6.15;3.78;;;;;;;;;;5021050;28;20207;-83
2021/09/01 14:42:34;;;;;;;6.97;3.83;;;;;;;;;;5012891;28;20049;-83
2021/09/01 14:45:00;;;;;;;9.15;4.32;;;;;;;;;;5012659;28;20082;-85
2021/09/01 14:47:27;;;;;;;7.35;4.07;;;;;;;;;;5012632;28;20651;-84